Time;durP1;ratioP1;P1;durP2;ratioP2;P2;SDS_P1;SDS_P2;PMS_P1;PMS_P2;Temp;Humidity;BMP_temperature;BMP_pressure;BME280_temperature;BME280_humidity;BME280_pressure;Samples;Min_cycle;Max_cycle;Signal;HPM_P1;HPM_P2
2023/11/01 03:06:45;;;;;;;12.10;5.00;;;;;;;19.69;100.00;99948.66;106126;1260;60444;-89
2023/11/01 03:09:20;;;;;;;14.20;5.80;;;;;;;19.69;100.00;99939.95;106165;1257;60473;-90
2023/11/01 03:12:00;;;;;;;15.80;6.90;;;;;;;19.73;100.00;99929.31;106346;1254;73814;-89
2023/11/01 03:14:44;;;;;;;11.50;5.80;;;;;;;19.64;100.00;99926.40;106498;1256;66796;-87
2023/11/01 03:17:19;;;;;;;9.50;4.90;;;;;;;19.64;100.00;99926.02;106087;1257;71396;-89
2023/11/01 03:19:53;;;;;;;18.20;6.30;;;;;;;19.68;100.00;99915.77;106275;1256;60566;-86
2023/11/01 03:22:34;;;;;;;14.80;6.40;;;;;;;19.68;100.00;99915.68;106621;1256;60783;-89
2023/11/01 03:25:14;;;;;;;18.50;6.30;;;;;;;19.68;100.00;99908.69;106590;1260;73841;-89
2023/11/01 03:27:48;;;;;;;14.80;6.00;;;;;;;19.72;100.00;99903.27;106353;1260;67449;-89
2023/11/01 03:30:23;;;;;;;16.20;6.50;;;;;;;19.67;100.00;99899.17;106410;1259;72028;-87
2023/11/01 03:33:03;;;;;;;17.40;6.60;;;;;;;19.64;100.00;99893.35;106113;1256;60647;-89
2023/11/01 03:35:43;;;;;;;16.10;6.60;;;;;;;19.64;100.00;99890.36;106292;1259;60467;-86
2023/11/01 03:38:17;;;;;;;12.00;6.40;;;;;;;19.64;100.00;99889.27;107053;1258;73837;-89
2023/11/01 03:40:55;;;;;;;15.90;7.40;;;;;;;19.70;100.00;99888.35;106611;1253;67093;-89
2023/11/01 03:43:35;;;;;;;13.80;6.80;;;;;;;19.74;100.00;99895.59;106262;1259;72678;-87
2023/11/01 03:46:15;;;;;;;12.50;5.70;;;;;;;19.72;100.00;99888.73;106057;1258;60470;-89
2023/11/01 03:48:49;;;;;;;14.40;5.90;;;;;;;19.71;100.00;99886.95;106524;1253;60537;-86
2023/11/01 03:51:27;;;;;;;13.50;6.60;;;;;;;19.66;100.00;99882.59;106040;1256;72761;-89
2023/11/01 03:54:07;;;;;;;14.10;6.30;;;;;;;19.67;100.00;99873.14;106094;1256;66314;-86
2023/11/01 03:56:50;;;;;;;16.40;6.50;;;;;;;19.69;100.00;99861.14;106128;1254;72961;-89
2023/11/01 03:59:30;;;;;;;15.10;7.10;;;;;;;19.66;100.00;99863.75;106779;1258;60473;-89
2023/11/01 04:01:59;;;;;;;16.30;7.70;;;;;;;19.73;100.00;99862.14;106231;1257;60460;-84
2023/11/01 04:04:39;;;;;;;14.40;7.30;;;;;;;19.64;100.00;99865.27;106180;1259;73869;-88
2023/11/01 04:07:19;;;;;;;12.80;5.90;;;;;;;19.67;100.00;99867.88;106239;1254;68729;-88
2023/11/01 04:09:53;;;;;;;14.90;8.40;;;;;;;19.69;100.00;99862.10;106147;1259;71521;-88
2023/11/01 04:12:27;;;;;;;19.10;8.10;;;;;;;19.64;100.00;99870.95;106174;1260;60481;-89
2023/11/01 04:15:09;;;;;;;15.80;6.70;;;;;;;19.64;100.00;99876.20;106592;1257;60546;-88
2023/11/01 04:17:51;;;;;;;17.30;7.20;;;;;;;19.70;100.00;99869.24;109209;1254;73759;-86
2023/11/01 04:20:32;;;;;;;17.60;7.50;;;;;;;19.72;100.00;99862.02;106420;1254;67237;-87
2023/11/01 04:23:00;;;;;;;20.90;8.40;;;;;;;19.74;100.00;99864.29;106265;1258;71443;-85
2023/11/01 04:25:41;;;;;;;21.30;8.20;;;;;;;19.74;100.00;99871.44;106135;1254;62438;-87
2023/11/01 04:28:21;;;;;;;19.60;8.60;;;;;;;19.74;100.00;99869.05;107648;1253;59147;-88
2023/11/01 04:30:55;;;;;;;23.90;8.60;;;;;;;19.78;100.00;99871.36;106201;1259;73867;-86
2023/11/01 04:33:28;;;;;;;21.70;9.50;;;;;;;19.81;100.00;99872.88;106247;1259;68560;-85
2023/11/01 04:36:09;;;;;;;20.60;7.50;;;;;;;19.83;100.00;99872.36;106279;1254;71499;-86
2023/11/01 04:38:49;;;;;;;18.90;8.90;;;;;;;19.80;100.00;99866.67;106501;1259;63564;-88
2023/11/01 04:41:26;;;;;;;21.50;9.60;;;;;;;19.76;100.00;99858.23;106326;1253;60367;-86
2023/11/01 04:44:00;;;;;;;16.80;8.80;;;;;;;19.81;100.00;99855.50;106273;1259;73242;-85
2023/11/01 04:46:46;;;;;;;20.30;7.70;;;;;;;19.86;100.00;99853.44;106366;1259;67103;-88
2023/11/01 04:49:26;;;;;;;20.10;9.70;;;;;;;19.93;100.00;99858.98;106223;1259;71471;-88
2023/11/01 04:52:06;;;;;;;23.20;9.70;;;;;;;19.89;100.00;99861.20;107561;1254;60673;-89
2023/11/01 04:54:34;;;;;;;15.80;8.70;;;;;;;19.87;100.00;99857.80;106285;1255;60352;-85
2023/11/01 05:02:32;;;;;;;19.30;9.10;;;;;;;20.01;100.00;99851.05;103614;1296;600962;-85
2023/11/01 05:05:06;;;;;;;22.30;8.40;;;;;;;20.00;100.00;99855.29;105387;1269;61725;-86
2023/11/01 05:07:47;;;;;;;22.40;9.40;;;;;;;19.97;100.00;99856.64;105476;1272;59243;-88
2023/11/01 05:10:27;;;;;;;21.10;9.70;;;;;;;19.98;100.00;99866.11;105377;1272;72250;-86
2023/11/01 05:13:07;;;;;;;16.60;8.60;;;;;;;20.00;100.00;99865.75;105644;1267;67151;-88
2023/11/01 05:15:36;;;;;;;16.40;8.40;;;;;;;20.03;100.00;99871.94;106151;1269;198432;-86
2023/11/01 05:18:18;;;;;;;19.40;10.10;;;;;;;20.02;100.00;99871.98;106036;1262;60164;-88
2023/11/01 05:20:58;;;;;;;23.70;11.00;;;;;;;20.07;100.00;99873.06;106038;1262;59301;-89
2023/11/01 05:23:52;;;;;;;22.60;9.50;;;;;;;20.06;100.00;99875.35;106027;1262;72555;-90
2023/11/01 05:26:30;;;;;;;22.10;9.20;;;;;;;20.12;100.00;99872.88;106575;1265;68491;-86
2023/11/01 05:29:04;;;;;;;20.30;10.60;;;;;;;20.10;100.00;99877.52;105848;1262;71402;-86
2023/11/01 05:31:44;;;;;;;20.70;9.80;;;;;;;20.13;100.00;99879.86;105872;1257;62339;-88
2023/11/01 05:34:24;;;;;;;18.30;8.80;;;;;;;20.17;100.00;99880.70;105900;1262;59844;-86
2023/11/01 05:36:57;;;;;;;19.00;10.60;;;;;;;20.14;100.00;99882.68;106338;1262;71823;-89
2023/11/01 05:39:31;;;;;;;20.80;9.90;;;;;;;20.04;100.00;99881.00;106024;1258;67635;-89
2023/11/01 05:42:11;;;;;;;21.60;9.40;;;;;;;19.94;100.00;99886.59;106010;1263;73155;-89
2023/11/01 05:44:51;;;;;;;18.00;9.10;;;;;;;19.92;100.00;99890.04;106023;1257;60270;-89
2023/11/01 05:47:29;;;;;;;20.30;10.40;;;;;;;19.88;100.00;99892.45;106474;1257;60009;-86
2023/11/01 05:50:06;;;;;;;18.00;10.30;;;;;;;19.96;100.00;99893.65;106221;1260;73033;-87
2023/11/01 05:52:48;;;;;;;25.20;9.20;;;;;;;19.94;100.00;99900.13;106015;1262;67161;-88
2023/11/01 05:55:27;;;;;;;19.00;10.20;;;;;;;19.96;100.00;99899.81;105979;1258;72480;-89
2023/11/01 05:58:31;;;;;;;20.60;10.60;;;;;;;19.96;100.00;99895.59;106241;1258;60063;-90
2023/11/01 06:01:06;;;;;;;19.90;10.60;;;;;;;19.98;100.00;99896.61;106996;1256;59791;-89
2023/11/01 06:03:40;;;;;;;18.90;9.20;;;;;;;19.99;100.00;99891.48;106234;1255;73033;-89
2023/11/01 06:06:20;;;;;;;17.50;10.00;;;;;;;20.02;100.00;99889.75;106291;1261;67613;-86
2023/11/01 06:09:04;;;;;;;27.70;12.70;;;;;;;20.07;100.00;99887.40;106374;1260;71418;-87
2023/11/01 06:11:38;;;;;;;20.80;11.60;;;;;;;20.06;100.00;99887.33;107188;1254;59853;-87
2023/11/01 06:14:12;;;;;;;19.60;9.50;;;;;;;20.11;100.00;99881.23;106172;1259;59693;-86
2023/11/01 06:16:51;;;;;;;23.10;9.90;;;;;;;20.12;100.00;99885.31;106088;1254;72472;-85
2023/11/01 06:19:25;;;;;;;21.40;10.80;;;;;;;20.11;100.00;99888.94;106305;1257;67440;-88
2023/11/01 06:21:55;;;;;;;25.00;11.70;;;;;;;20.18;100.00;99886.98;106894;1254;71911;-86
2023/11/01 06:24:36;;;;;;;18.70;9.50;;;;;;;20.28;100.00;99882.63;106168;1255;61847;-88
2023/11/01 06:27:18;;;;;;;18.40;9.10;;;;;;;20.36;100.00;99883.61;106225;1253;60105;-86
2023/11/01 06:29:58;;;;;;;19.80;10.40;;;;;;;20.44;100.00;99876.65;106325;1260;73047;-85
2023/11/01 06:32:26;;;;;;;22.40;10.80;;;;;;;20.47;100.00;99874.61;107212;1257;67112;-88
2023/11/01 06:35:06;;;;;;;26.00;12.50;;;;;;;20.60;100.00;99869.54;106300;1259;73146;-89
2023/11/01 06:37:47;;;;;;;20.70;9.50;;;;;;;20.71;100.00;99864.64;106279;1257;61837;-88
2023/11/01 06:40:29;;;;;;;18.70;9.30;;;;;;;20.79;100.00;99858.06;106233;1259;59683;-86
2023/11/01 06:42:57;;;;;;;18.60;10.70;;;;;;;20.82;100.00;99858.86;106728;1259;72422;-86
2023/11/01 06:45:40;;;;;;;18.60;10.40;;;;;;;20.91;100.00;99860.58;106276;1258;68827;-86
2023/11/01 06:48:21;;;;;;;17.20;9.10;;;;;;;21.00;100.00;99863.86;106199;1259;72881;-86
2023/11/01 06:51:01;;;;;;;24.70;8.60;;;;;;;21.06;100.00;99870.71;106158;1256;61708;-86
2023/11/01 06:53:28;;;;;;;20.50;10.40;;;;;;;21.08;100.00;99868.21;106895;1259;59546;-88
2023/11/01 06:56:11;;;;;;;19.40;10.50;;;;;;;21.05;100.00;99869.11;105932;1255;71826;-88
2023/11/01 06:58:53;;;;;;;21.20;11.30;;;;;;;21.05;100.00;99866.98;105974;1259;68092;-87
2023/11/01 07:01:33;;;;;;;19.20;8.70;;;;;;;21.04;100.00;99867.42;106301;1254;71668;-87
2023/11/01 07:04:00;;;;;;;16.50;10.80;;;;;;;21.06;100.00;99867.93;107085;1254;59733;-88
2023/11/01 07:06:38;;;;;;;16.30;10.70;;;;;;;21.09;100.00;99870.63;106230;1259;61491;-87
2023/11/01 07:09:12;;;;;;;17.90;9.80;;;;;;;21.11;100.00;99872.34;106252;1254;74576;-87
2023/11/01 07:11:52;;;;;;;18.50;9.10;;;;;;;21.00;100.00;99872.89;106355;1254;68778;-86
2023/11/01 07:14:25;;;;;;;20.00;10.10;;;;;;;21.05;100.00;99869.59;107160;1254;72642;-86
2023/11/01 07:16:59;;;;;;;23.60;11.10;;;;;;;21.09;100.00;99867.45;106424;1255;59743;-87
2023/11/01 07:19:41;;;;;;;16.60;10.40;;;;;;;21.07;100.00;99864.54;106441;1257;62133;-87
2023/11/01 07:22:16;;;;;;;19.60;10.40;;;;;;;21.07;100.00;99864.05;106255;1260;75392;-87
2023/11/01 07:24:48;;;;;;;17.80;8.60;;;;;;;21.12;100.00;99863.06;107071;1254;69074;-87
2023/11/01 07:27:25;;;;;;;15.40;10.50;;;;;;;21.19;100.00;99854.02;106684;1257;72653;-87
2023/11/01 07:29:58;;;;;;;20.00;9.90;;;;;;;21.22;100.00;99848.12;106555;1254;61471;-87
2023/11/01 07:32:26;;;;;;;20.60;10.50;;;;;;;21.32;100.00;99847.99;106546;1257;59654;-87
2023/11/01 07:34:58;;;;;;;13.80;8.10;;;;;;;21.33;100.00;99850.31;107409;1253;73041;-86
2023/11/01 07:37:34;;;;;;;16.10;10.00;;;;;;;21.49;100.00;99852.09;106301;1254;67168;-87
2023/11/01 07:40:03;;;;;;;17.00;10.60;;;;;;;21.65;100.00;99850.80;106353;1253;72227;-87
2023/11/01 07:42:32;;;;;;;17.90;10.90;;;;;;;21.71;100.00;99848.61;106561;1253;61980;-88
2023/11/01 07:45:08;;;;;;;17.60;9.80;;;;;;;21.77;100.00;99848.65;106494;1254;59577;-88
2023/11/01 07:47:41;;;;;;;17.00;9.80;;;;;;;21.73;100.00;99851.84;107262;1254;71834;-88
2023/11/01 07:50:17;;;;;;;19.40;10.10;;;;;;;21.81;100.00;99855.95;106885;1254;68428;-88
2023/11/01 07:52:51;;;;;;;17.80;9.50;;;;;;;21.93;100.00;99854.16;106459;1258;72988;-88
2023/11/01 07:55:25;;;;;;;16.40;9.70;;;;;;;22.00;100.00;99856.43;106432;1260;59641;-88
2023/11/01 07:57:58;;;;;;;18.10;9.10;;;;;;;22.01;100.00;99854.86;106912;1254;60537;-86
2023/11/01 08:00:39;;;;;;;17.40;9.70;;;;;;;22.06;100.00;99852.72;106439;1254;75968;-86
2023/11/01 08:03:07;;;;;;;18.50;9.50;;;;;;;22.16;100.00;99857.56;106310;1260;67613;-86
2023/11/01 08:05:37;;;;;;;15.40;10.00;;;;;;;22.26;100.00;99857.69;106428;1254;72454;-86
2023/11/01 08:08:14;;;;;;;17.90;10.00;;;;;;;22.34;100.00;99856.06;107403;1254;60539;-87
2023/11/01 08:10:48;;;;;;;15.70;8.10;;;;;;;22.43;100.00;99855.34;106534;1260;60995;-87
2023/11/01 08:13:15;;;;;;;17.00;10.00;;;;;;;22.54;100.00;99857.09;106308;1255;75225;-87
2023/11/01 08:15:49;;;;;;;13.90;9.30;;;;;;;22.59;100.00;99865.70;106517;1257;67115;-87
2023/11/01 08:18:23;;;;;;;17.00;9.80;;;;;;;22.71;100.00;99864.60;107485;1260;71075;-87
2023/11/01 08:20:53;;;;;;;17.90;9.70;;;;;;;22.86;100.00;99861.36;106392;1258;59825;-87
2023/11/01 08:23:27;;;;;;;15.30;8.70;;;;;;;22.94;100.00;99864.35;106480;1254;60105;-86
2023/11/01 08:26:02;;;;;;;14.00;9.10;;;;;;;22.86;100.00;99867.19;106480;1254;75359;-86
2023/11/01 08:28:33;;;;;;;16.80;8.80;;;;;;;22.90;100.00;99865.34;107236;1254;70286;-86
2023/11/01 08:31:05;;;;;;;17.10;9.10;;;;;;;22.84;100.00;99865.17;106321;1254;74755;-87
2023/11/01 08:33:36;;;;;;;22.80;9.50;;;;;;;22.81;100.00;99864.23;106502;1254;60792;-87
2023/11/01 08:36:11;;;;;;;14.20;8.60;;;;;;;22.73;100.00;99861.45;107372;1253;61117;-88
2023/11/01 08:38:44;;;;;;;16.50;7.90;;;;;;;22.75;100.00;99858.92;106892;1260;72900;-87
2023/11/01 08:41:19;;;;;;;12.90;8.10;;;;;;;22.70;100.00;99864.25;106390;1258;68351;-88
2023/11/01 08:43:54;;;;;;;15.80;8.50;;;;;;;22.68;100.00;99857.70;106286;1256;74972;-87
2023/11/01 08:46:27;;;;;;;13.80;7.90;;;;;;;22.74;100.00;99855.09;106871;1254;62557;-86
2023/11/01 08:49:00;;;;;;;12.80;8.90;;;;;;;22.76;100.00;99854.71;106467;1254;62363;-86
2023/11/01 08:51:39;;;;;;;12.90;7.30;;;;;;;22.75;100.00;99854.30;106618;1257;73110;-87
2023/11/01 08:54:13;;;;;;;18.10;8.50;;;;;;;22.67;100.00;99848.77;106542;1254;71044;-88
2023/11/01 08:56:42;;;;;;;16.30;8.20;;;;;;;22.64;100.00;99847.47;106996;1258;73511;-87
2023/11/01 08:59:16;;;;;;;27.80;8.90;;;;;;;22.58;100.00;99850.55;106428;1260;59710;-87
2023/11/01 09:01:50;;;;;;;15.30;7.90;;;;;;;22.62;100.00;99849.50;106321;1259;61659;-87
2023/11/01 09:04:23;;;;;;;17.20;8.80;;;;;;;22.64;100.00;99843.33;106548;1254;72343;-87
2023/11/01 09:06:57;;;;;;;15.30;8.30;;;;;;;22.70;100.00;99839.37;106825;1260;67167;-87
2023/11/01 09:09:29;;;;;;;12.80;8.00;;;;;;;22.75;100.00;99840.30;106461;1258;75064;-87
2023/11/01 09:12:06;;;;;;;14.70;7.70;;;;;;;22.76;100.00;99840.15;106627;1254;60245;-89
2023/11/01 09:14:40;;;;;;;14.60;8.10;;;;;;;22.75;100.00;99843.25;106726;1253;60935;-86
2023/11/01 09:17:13;;;;;;;13.90;7.30;;;;;;;22.64;100.00;99843.17;106874;1254;75166;-86
2023/11/01 09:19:45;;;;;;;16.60;7.90;;;;;;;22.66;100.00;99850.59;106273;1254;68526;-87
2023/11/01 09:22:20;;;;;;;;;;;;;;;22.60;100.00;99845.98;106264;1256;72215;-86
2023/11/01 09:24:52;;;;;;;14.40;8.80;;;;;;;22.57;100.00;99843.07;106171;1259;60939;-90
2023/11/01 09:27:26;;;;;;;14.60;8.60;;;;;;;22.56;100.00;99835.73;107048;1254;60413;-89
2023/11/01 09:29:54;;;;;;;14.00;7.10;;;;;;;22.64;100.00;99829.23;106574;1256;74993;-90
2023/11/01 09:32:28;;;;;;;17.30;8.10;;;;;;;22.68;100.00;99824.05;106351;1259;68726;-90
2023/11/01 09:34:56;;;;;;;16.90;8.70;;;;;;;22.68;100.00;99812.83;106530;1254;72766;-90
2023/11/01 09:37:31;;;;;;;13.60;7.80;;;;;;;22.67;100.00;99810.50;106716;1253;62266;-90
2023/11/01 09:40:00;;;;;;;16.60;8.10;;;;;;;22.64;100.00;99808.40;106383;1259;62774;-90
2023/11/01 09:42:29;;;;;;;16.30;7.80;;;;;;;22.57;100.00;99810.53;106348;1252;74363;-90
2023/11/01 09:45:03;;;;;;;12.50;6.70;;;;;;;22.49;100.00;99810.41;106483;1253;69610;-90
2023/11/01 09:47:43;;;;;;;12.30;7.20;;;;;;;22.50;100.00;99815.58;106948;1253;72648;-90
2023/11/01 09:50:13;;;;;;;21.80;8.30;;;;;;;22.42;100.00;99831.38;106472;1253;60846;-90
2023/11/01 09:52:44;;;;;;;15.20;8.80;;;;;;;22.33;100.00;99836.75;106332;1254;60364;-89
2023/11/01 09:55:21;;;;;;;15.60;8.70;;;;;;;22.23;100.00;99836.98;106389;1255;74268;-90
2023/11/01 09:57:52;;;;;;;13.60;8.20;;;;;;;22.10;100.00;99846.04;106361;1253;71396;-90
2023/11/01 10:00:26;;;;;;;17.20;9.30;;;;;;;22.00;100.00;99848.80;106579;1253;73529;-91
2023/11/01 10:03:01;;;;;;;16.70;8.70;;;;;;;21.92;100.00;99840.25;106433;1254;61059;-90
2023/11/01 10:05:30;;;;;;;15.50;8.90;;;;;;;21.95;100.00;99840.29;106571;1254;60337;-90
2023/11/01 10:08:01;;;;;;;17.10;9.30;;;;;;;21.90;100.00;99822.57;106495;1254;76161;-90
2023/11/01 10:10:35;;;;;;;15.30;9.20;;;;;;;21.86;100.00;99815.98;107517;1251;71330;-90
2023/11/01 10:13:08;;;;;;;17.20;8.80;;;;;;;21.87;100.00;99823.48;106626;1254;72913;-91
2023/11/01 10:15:42;;;;;;;20.60;9.30;;;;;;;21.88;100.00;99823.10;106600;1254;60549;-89
2023/11/01 10:18:13;;;;;;;16.50;9.30;;;;;;;21.91;100.00;99822.59;106386;1254;61081;-90
2023/11/01 10:20:53;;;;;;;21.10;8.20;;;;;;;21.94;100.00;99825.33;106271;1254;73072;-90
2023/11/01 10:23:25;;;;;;;19.10;9.30;;;;;;;21.99;100.00;99820.17;106810;1254;69666;-87
2023/11/01 10:25:54;;;;;;;18.30;9.30;;;;;;;21.97;100.00;99821.98;106318;1254;74740;-87
2023/11/01 10:28:32;;;;;;;15.00;9.10;;;;;;;21.97;100.00;99829.36;106436;1257;61084;-86
2023/11/01 10:31:07;;;;;;;16.00;9.40;;;;;;;21.98;100.00;99825.50;106342;1252;62190;-87
2023/11/01 10:33:40;;;;;;;14.20;8.20;;;;;;;22.01;100.00;99827.77;107011;1260;76140;-86
2023/11/01 10:36:21;;;;;;;19.10;9.00;;;;;;;22.00;100.00;99829.73;106431;1257;70444;-87
2023/11/01 10:38:50;;;;;;;16.40;8.80;;;;;;;21.98;100.00;99828.81;106440;1254;72694;-86
2023/11/01 10:41:19;;;;;;;18.50;9.00;;;;;;;22.04;100.00;99834.88;106490;1253;60480;-87
2023/11/01 10:43:53;;;;;;;19.50;10.40;;;;;;;21.97;100.00;99833.48;106958;1253;60460;-86
2023/11/01 10:46:27;;;;;;;21.40;11.00;;;;;;;21.95;100.00;99838.06;106355;1253;75942;-87
2023/11/01 10:49:01;;;;;;;17.20;10.00;;;;;;;21.93;100.00;99838.59;106427;1253;70800;-87
2023/11/01 10:51:33;;;;;;;17.80;10.30;;;;;;;21.88;100.00;99846.14;106312;1258;74938;-87
2023/11/01 10:54:11;;;;;;;;;;;;;;;21.82;100.00;99855.58;107667;1253;62259;-87
2023/11/01 10:56:39;;;;;;;17.70;9.10;;;;;;;21.81;100.00;99852.13;106205;1253;61989;-84
2023/11/01 10:59:22;;;;;;;18.90;9.30;;;;;;;21.64;100.00;99856.03;106630;1257;75126;-88
2023/11/01 11:02:11;;;;;;;18.20;10.70;;;;;;;21.51;100.00;99852.77;106443;1257;68770;-87
